Time;durP1;ratioP1;P1;durP2;ratioP2;P2;SDS_P1;SDS_P2;PMS_P1;PMS_P2;Temp;Humidity;BMP_temperature;BMP_pressure;BME280_temperature;BME280_humidity;BME280_pressure;Samples;Min_cycle;Max_cycle;Signal;HPM_P1;HPM_P2
2022/12/06 00:01:32;;;;;;;19.93;10.50;;;5.10;99.90;;;;;;4975404;28;20199;-59
2022/12/06 00:04:03;;;;;;;19.93;10.67;;;5.20;99.90;;;;;;4971628;28;20732;-58
2022/12/06 00:06:34;;;;;;;22.40;10.67;;;5.10;99.90;;;;;;4983198;28;20195;-58
2022/12/06 00:09:07;;;;;;;19.07;10.00;;;5.10;99.90;;;;;;4996129;28;20191;-58
2022/12/06 00:11:36;;;;;;;21.57;10.13;;;5.10;99.90;;;;;;5018175;28;20202;-58
2022/12/06 00:14:08;;;;;;;21.47;10.33;;;5.10;99.90;;;;;;4987726;28;20187;-58
2022/12/06 00:16:37;;;;;;;18.93;10.30;;;5.10;99.90;;;;;;4987496;28;20235;-58
2022/12/06 00:19:06;;;;;;;18.93;10.00;;;5.10;99.90;;;;;;4987265;28;20203;-58
2022/12/06 00:21:36;;;;;;;17.67;10.43;;;5.10;99.90;;;;;;4988099;28;20227;-58
2022/12/06 00:24:11;;;;;;;21.37;10.40;;;5.10;99.90;;;;;;4975307;28;20206;-58
2022/12/06 00:26:41;;;;;;;19.23;10.40;;;5.10;99.90;;;;;;4974714;28;20282;-58
2022/12/06 00:29:13;;;;;;;25.17;11.10;;;5.10;99.90;;;;;;4983565;28;20659;-59
2022/12/06 00:31:41;;;;;;;19.10;10.30;;;5.10;99.90;;;;;;4983933;28;20203;-58
2022/12/06 00:34:12;;;;;;;24.53;11.57;;;5.10;99.90;;;;;;5012961;28;20199;-58
2022/12/06 00:36:42;;;;;;;20.10;11.23;;;5.10;99.90;;;;;;4992499;28;20199;-58
2022/12/06 00:39:15;;;;;;;21.73;10.57;;;5.10;99.90;;;;;;4983004;28;20215;-58
2022/12/06 00:41:44;;;;;;;22.13;11.33;;;5.10;99.90;;;;;;4983143;28;20217;-58
2022/12/06 00:44:13;;;;;;;15.87;10.07;;;5.10;99.90;;;;;;4979183;28;20652;-59
2022/12/06 00:46:41;;;;;;;16.63;10.20;;;5.10;99.90;;;;;;4989543;28;20211;-58
2022/12/06 00:49:12;;;;;;;17.87;10.60;;;5.10;99.90;;;;;;4984483;28;20195;-58
2022/12/06 00:51:41;;;;;;;26.43;11.67;;;5.10;99.90;;;;;;4976078;28;20203;-58
2022/12/06 00:54:15;;;;;;;21.03;11.27;;;5.10;99.90;;;;;;4976604;28;20205;-58
2022/12/06 00:56:43;;;;;;;20.60;11.00;;;5.10;99.90;;;;;;4986408;28;20206;-59
2022/12/06 00:59:12;;;;;;;21.00;10.53;;;5.10;99.90;;;;;;4979492;28;20211;-58
2022/12/06 01:01:41;;;;;;;22.53;11.30;;;5.20;99.90;;;;;;5015554;28;20187;-58
2022/12/06 01:04:13;;;;;;;23.30;11.57;;;5.10;99.90;;;;;;5018287;28;20666;-58
2022/12/06 01:06:41;;;;;;;19.90;10.87;;;5.20;99.90;;;;;;5044225;28;20194;-58
2022/12/06 01:09:12;;;;;;;22.10;10.90;;;5.20;99.90;;;;;;5008522;28;20221;-58
2022/12/06 01:11:42;;;;;;;18.87;10.57;;;5.20;99.90;;;;;;4987893;28;20198;-59
2022/12/06 01:14:10;;;;;;;23.23;11.23;;;5.10;99.90;;;;;;4984400;28;20197;-58
2022/12/06 01:16:38;;;;;;;19.93;10.57;;;5.10;99.90;;;;;;4986248;28;20602;-58
2022/12/06 01:19:07;;;;;;;21.03;11.30;;;5.10;99.90;;;;;;4976018;28;20216;-58
2022/12/06 01:21:36;;;;;;;21.10;10.73;;;5.10;99.90;;;;;;4979543;28;20582;-59
2022/12/06 01:24:05;;;;;;;20.97;10.60;;;5.10;99.90;;;;;;4980548;28;20657;-58
2022/12/06 01:26:35;;;;;;;22.27;11.47;;;5.10;99.90;;;;;;4986568;28;20199;-58
2022/12/06 01:29:04;;;;;;;23.83;10.80;;;5.10;99.90;;;;;;4986745;28;20312;-58
2022/12/06 01:31:33;;;;;;;22.20;11.50;;;5.10;99.90;;;;;;4983615;28;20210;-59
2022/12/06 01:34:07;;;;;;;25.37;11.50;;;5.10;99.90;;;;;;5015357;28;20187;-58
2022/12/06 01:36:35;;;;;;;22.00;11.43;;;5.10;99.90;;;;;;4982322;28;20210;-59
2022/12/06 01:39:09;;;;;;;25.00;11.10;;;5.10;99.90;;;;;;5018771;28;20669;-58
2022/12/06 01:41:38;;;;;;;21.03;11.70;;;5.00;99.90;;;;;;4981627;28;20579;-58
2022/12/06 01:44:41;;;;;;;24.07;11.30;;;5.00;99.90;;;;;;4985951;28;20195;-58
2022/12/06 01:47:13;;;;;;;24.47;11.27;;;5.00;99.90;;;;;;4978198;28;20195;-59
2022/12/06 01:49:45;;;;;;;20.10;11.40;;;5.00;99.90;;;;;;4995991;28;20664;-58
2022/12/06 01:52:15;;;;;;;24.77;11.73;;;5.00;99.90;;;;;;4972107;28;20207;-58
2022/12/06 01:54:43;;;;;;;26.10;11.63;;;5.00;99.90;;;;;;4994320;28;20206;-58
2022/12/06 01:57:15;;;;;;;25.13;11.07;;;5.00;99.90;;;;;;4982100;28;20202;-58
2022/12/06 01:59:45;;;;;;;22.23;10.67;;;5.00;99.90;;;;;;4983910;28;20272;-58
2022/12/06 02:02:14;;;;;;;19.07;10.87;;;5.00;99.90;;;;;;4974840;28;20192;-59
2022/12/06 02:04:44;;;;;;;23.23;11.23;;;5.00;99.90;;;;;;5000814;28;20195;-58
2022/12/06 02:07:13;;;;;;;19.00;10.67;;;5.00;99.90;;;;;;4984029;28;20549;-59
2022/12/06 02:09:42;;;;;;;21.87;11.47;;;5.10;99.90;;;;;;4979893;28;20195;-59
2022/12/06 02:12:13;;;;;;;24.17;10.53;;;5.10;99.90;;;;;;4983143;28;20211;-59
2022/12/06 02:14:47;;;;;;;17.97;10.53;;;5.10;99.90;;;;;;4983214;28;20199;-59
2022/12/06 02:17:32;;;;;;;19.90;10.40;;;5.10;99.90;;;;;;4977642;28;20246;-58
2022/12/06 02:20:16;;;;;;;19.50;11.23;;;5.10;99.90;;;;;;4977027;28;20223;-59
2022/12/06 02:23:12;;;;;;;21.67;11.40;;;5.10;99.90;;;;;;4997694;28;20198;-59
2022/12/06 02:26:15;;;;;;;20.23;11.33;;;5.10;99.90;;;;;;4977694;28;20277;-58
2022/12/06 02:29:15;;;;;;;23.00;10.67;;;5.10;99.90;;;;;;5001062;28;20210;-59
2022/12/06 02:31:51;;;;;;;20.70;11.00;;;5.10;99.90;;;;;;4986156;28;20283;-59
2022/12/06 02:34:25;;;;;;;22.63;10.73;;;5.10;99.90;;;;;;4982748;28;20198;-59
2022/12/06 02:37:00;;;;;;;25.20;11.90;;;5.10;99.90;;;;;;4980626;28;20195;-58
2022/12/06 02:39:33;;;;;;;18.40;10.73;;;5.10;99.90;;;;;;4990496;28;20226;-58
2022/12/06 02:42:06;;;;;;;19.27;11.17;;;5.10;99.90;;;;;;4980420;28;20317;-59
2022/12/06 02:44:39;;;;;;;22.13;11.07;;;5.10;99.90;;;;;;4984440;28;20195;-58
2022/12/06 02:47:11;;;;;;;23.17;10.77;;;5.10;99.90;;;;;;4974768;28;20188;-58
2022/12/06 02:49:45;;;;;;;18.43;10.60;;;5.10;99.90;;;;;;4983087;28;20191;-59
2022/12/06 02:52:14;;;;;;;23.37;11.67;;;5.10;99.90;;;;;;4971871;28;20215;-58
2022/12/06 02:54:46;;;;;;;19.83;11.23;;;5.10;99.90;;;;;;4984049;28;20226;-58
2022/12/06 02:57:14;;;;;;;17.83;10.17;;;5.10;99.90;;;;;;4981477;28;20199;-58
2022/12/06 02:59:52;;;;;;;19.00;10.70;;;5.10;99.90;;;;;;5016095;28;20253;-59
2022/12/06 03:02:23;;;;;;;22.10;11.10;;;5.10;99.90;;;;;;4980539;28;20206;-58
2022/12/06 03:05:05;;;;;;;18.73;10.57;;;5.10;99.90;;;;;;5001862;28;20191;-58
2022/12/06 03:07:41;;;;;;;22.30;11.20;;;5.10;99.90;;;;;;4980537;28;20196;-58
2022/12/06 03:10:34;;;;;;;20.03;10.87;;;5.10;99.90;;;;;;4985002;28;20194;-59
2022/12/06 03:13:12;;;;;;;24.53;10.90;;;5.10;99.90;;;;;;4980402;28;20759;-58
2022/12/06 03:15:49;;;;;;;19.80;11.37;;;5.10;99.90;;;;;;4990742;28;20209;-59
2022/12/06 03:18:24;;;;;;;22.80;11.50;;;5.10;99.90;;;;;;4983485;28;20661;-58
2022/12/06 03:20:56;;;;;;;26.47;10.63;;;5.10;99.90;;;;;;5013157;28;20786;-59
2022/12/06 03:23:31;;;;;;;20.13;11.00;;;5.10;99.90;;;;;;4986215;28;20261;-58
2022/12/06 03:26:01;;;;;;;18.97;11.00;;;5.00;99.90;;;;;;4977701;28;20192;-58
2022/12/06 03:28:30;;;;;;;19.33;10.70;;;5.00;99.90;;;;;;4974702;28;20195;-58
2022/12/06 03:31:02;;;;;;;22.37;10.17;;;5.00;99.90;;;;;;4981380;28;20560;-58
2022/12/06 03:33:36;;;;;;;21.60;11.37;;;5.00;99.90;;;;;;4972701;28;20226;-58
2022/12/06 03:36:06;;;;;;;21.87;11.17;;;5.00;99.90;;;;;;4978561;28;20214;-58
2022/12/06 03:38:38;;;;;;;23.67;11.07;;;5.00;99.90;;;;;;4981115;28;20518;-58
2022/12/06 03:41:08;;;;;;;20.67;10.80;;;4.90;99.90;;;;;;4977864;28;20225;-58
2022/12/06 03:43:37;;;;;;;20.17;10.60;;;4.90;99.90;;;;;;4975590;28;20204;-59
2022/12/06 03:46:11;;;;;;;21.17;10.43;;;4.90;99.90;;;;;;4979994;28;20642;-57
2022/12/06 03:48:45;;;;;;;18.40;10.30;;;4.80;99.90;;;;;;4978960;28;20218;-58
2022/12/06 03:51:20;;;;;;;23.77;11.40;;;4.80;99.90;;;;;;4995078;28;20191;-58
2022/12/06 03:53:50;;;;;;;22.70;11.73;;;4.80;99.90;;;;;;4978519;28;20295;-58
2022/12/06 03:56:18;;;;;;;27.23;10.93;;;4.80;99.90;;;;;;4988510;28;20259;-58
2022/12/06 03:58:47;;;;;;;21.73;11.17;;;4.80;99.90;;;;;;4977346;28;20191;-58
2022/12/06 04:01:15;;;;;;;24.63;11.60;;;4.70;99.90;;;;;;4980547;28;20214;-58
2022/12/06 04:03:45;;;;;;;20.27;10.73;;;4.70;99.90;;;;;;5019841;27;20207;-59
2022/12/06 04:06:14;;;;;;;26.33;11.33;;;4.80;99.90;;;;;;5003234;28;20199;-58
2022/12/06 04:08:42;;;;;;;22.17;11.07;;;4.70;99.90;;;;;;5027595;28;20636;-58
2022/12/06 04:11:11;;;;;;;25.93;11.87;;;4.70;99.90;;;;;;4981936;28;20187;-59
2022/12/06 04:13:40;;;;;;;26.53;10.73;;;4.70;99.90;;;;;;4985095;28;20198;-59
2022/12/06 04:18:53;;;;;;;21.57;11.37;;;4.70;99.90;;;;;;4982353;28;20264;-58
2022/12/06 04:24:13;;;;;;;21.77;11.43;;;4.70;99.90;;;;;;4949250;28;20204;-58
2022/12/06 04:26:42;;;;;;;24.30;10.63;;;4.60;99.90;;;;;;4982610;28;20215;-58
2022/12/06 04:40:14;;;;;;;26.87;11.27;;;4.60;99.90;;;;;;4982629;28;20223;-58
2022/12/06 04:45:28;;;;;;;18.07;10.27;;;4.60;99.90;;;;;;5002579;28;20199;-58
2022/12/06 04:47:56;;;;;;;19.33;9.97;;;4.50;99.90;;;;;;5010699;27;20205;-58
2022/12/06 04:50:26;;;;;;;21.10;10.40;;;4.30;99.90;;;;;;5002720;28;20199;-58
2022/12/06 04:52:57;;;;;;;23.70;11.10;;;4.20;99.90;;;;;;4973168;28;20260;-58
2022/12/06 04:55:26;;;;;;;23.00;10.57;;;4.10;99.90;;;;;;4988930;28;20220;-58
2022/12/06 04:57:54;;;;;;;16.70;10.70;;;4.10;99.90;;;;;;4981085;28;20194;-59
2022/12/06 05:00:23;;;;;;;24.80;10.87;;;4.10;99.90;;;;;;4979763;28;20218;-58
2022/12/06 05:03:10;;;;;;;21.50;10.50;;;4.20;99.90;;;;;;4979381;28;20672;-58
2022/12/06 05:05:41;;;;;;;22.20;10.93;;;4.20;99.90;;;;;;4995118;28;20218;-58
2022/12/06 05:08:10;;;;;;;23.67;11.10;;;4.20;99.90;;;;;;4974765;28;20214;-58
2022/12/06 05:10:38;;;;;;;25.87;10.97;;;4.10;99.90;;;;;;4984773;28;20674;-58
2022/12/06 05:13:07;;;;;;;24.73;11.10;;;4.10;99.90;;;;;;4983635;28;20203;-58
2022/12/06 05:15:37;;;;;;;26.10;11.83;;;4.10;99.90;;;;;;4975493;28;20238;-58
2022/12/06 05:18:06;;;;;;;26.70;11.90;;;4.10;99.90;;;;;;4981876;28;20211;-59
2022/12/06 05:20:35;;;;;;;27.27;11.17;;;4.10;99.90;;;;;;4980559;28;20231;-59
2022/12/06 05:23:05;;;;;;;26.17;11.07;;;4.00;99.90;;;;;;4971280;28;20206;-59
2022/12/06 05:25:33;;;;;;;22.20;10.57;;;4.00;99.90;;;;;;4978964;28;20191;-59
2022/12/06 05:28:02;;;;;;;33.80;11.27;;;4.00;99.90;;;;;;4974638;28;20200;-58
2022/12/06 05:30:30;;;;;;;31.10;11.53;;;4.00;99.90;;;;;;4983756;28;20187;-59
2022/12/06 05:32:59;;;;;;;26.73;11.67;;;4.00;99.90;;;;;;4979794;28;20214;-58
2022/12/06 05:35:27;;;;;;;25.20;11.40;;;3.90;99.90;;;;;;4989943;28;21038;-59
2022/12/06 05:37:55;;;;;;;26.40;11.40;;;3.90;99.90;;;;;;4977993;28;20191;-58
2022/12/06 05:40:25;;;;;;;33.13;12.10;;;3.90;99.90;;;;;;4979349;28;20203;-57
2022/12/06 05:42:53;;;;;;;28.87;11.57;;;4.00;99.90;;;;;;4999429;28;20210;-58
2022/12/06 05:45:22;;;;;;;24.23;11.33;;;4.00;99.90;;;;;;4982018;28;20215;-58
2022/12/06 05:47:50;;;;;;;28.77;11.33;;;4.00;99.90;;;;;;4979921;28;20726;-58
2022/12/06 05:50:18;;;;;;;24.73;11.27;;;4.00;99.90;;;;;;4984105;28;20251;-58
2022/12/06 05:52:47;;;;;;;25.50;10.87;;;4.00;99.90;;;;;;5005046;28;20207;-58
2022/12/06 05:55:15;;;;;;;19.83;10.33;;;3.90;99.90;;;;;;5010734;28;20230;-58
2022/12/06 05:57:45;;;;;;;27.97;12.80;;;3.90;99.90;;;;;;4979792;28;20199;-58
2022/12/06 06:00:15;;;;;;;31.00;11.93;;;3.90;99.90;;;;;;4982078;28;20207;-58
2022/12/06 06:02:44;;;;;;;23.73;11.03;;;3.80;99.90;;;;;;4982632;28;20214;-59
2022/12/06 06:05:13;;;;;;;24.47;10.77;;;3.70;99.90;;;;;;4985261;28;20637;-58
2022/12/06 06:07:42;;;;;;;23.27;10.13;;;3.60;99.90;;;;;;4987692;28;20199;-58
2022/12/06 06:10:11;;;;;;;21.80;9.97;;;3.40;99.90;;;;;;4979719;28;20204;-58
2022/12/06 06:12:39;;;;;;;22.73;10.83;;;3.30;99.90;;;;;;4980414;28;20601;-58
2022/12/06 06:15:10;;;;;;;26.20;11.17;;;3.30;99.90;;;;;;4981099;28;20761;-58
2022/12/06 06:17:39;;;;;;;20.97;10.47;;;3.20;99.90;;;;;;4991883;28;20715;-58
2022/12/06 06:20:09;;;;;;;29.30;10.70;;;3.10;99.90;;;;;;4980774;28;20266;-58
2022/12/06 06:22:39;;;;;;;24.33;10.43;;;3.00;99.90;;;;;;4974479;28;20226;-58
2022/12/06 06:25:08;;;;;;;23.97;12.27;;;2.90;99.90;;;;;;5010709;28;20191;-58
2022/12/06 06:27:37;;;;;;;23.07;12.03;;;2.80;99.90;;;;;;5014182;28;20196;-58
2022/12/06 06:30:08;;;;;;;30.33;13.70;;;2.70;99.90;;;;;;4987724;28;20207;-58
2022/12/06 06:32:38;;;;;;;31.23;12.67;;;2.60;99.90;;;;;;4986930;28;20677;-58
2022/12/06 06:35:07;;;;;;;30.87;14.77;;;2.60;99.90;;;;;;4992377;28;20673;-58
2022/12/06 06:37:35;;;;;;;24.37;12.90;;;2.50;99.90;;;;;;4979497;28;20203;-58
2022/12/06 06:40:05;;;;;;;29.70;13.07;;;2.40;99.90;;;;;;4980871;28;20314;-58
2022/12/06 06:42:33;;;;;;;26.10;12.07;;;2.30;99.90;;;;;;4987347;28;20289;-58
2022/12/06 06:45:02;;;;;;;27.07;10.97;;;2.30;99.90;;;;;;4982301;28;20202;-58
2022/12/06 06:47:31;;;;;;;22.37;10.03;;;2.20;99.90;;;;;;4991042;28;20713;-58
2022/12/06 06:50:01;;;;;;;19.03;9.63;;;2.20;99.90;;;;;;4984073;28;20210;-58
2022/12/06 06:52:29;;;;;;;20.57;9.47;;;2.10;99.90;;;;;;4988190;28;20215;-58
2022/12/06 06:54:57;;;;;;;20.80;9.60;;;2.00;99.90;;;;;;4986079;28;20549;-58
2022/12/06 06:57:26;;;;;;;23.30;9.23;;;2.00;99.90;;;;;;4982357;28;20206;-58
2022/12/06 06:59:55;;;;;;;17.93;9.47;;;1.90;99.90;;;;;;5000663;28;20210;-58
2022/12/06 07:02:23;;;;;;;22.87;10.50;;;1.90;99.90;;;;;;4985324;28;20225;-58
2022/12/06 07:04:52;;;;;;;22.87;10.30;;;1.80;99.90;;;;;;4976283;28;20632;-57
2022/12/06 07:07:21;;;;;;;24.17;10.10;;;1.70;99.90;;;;;;4976244;28;20195;-58
2022/12/06 07:09:50;;;;;;;24.80;11.40;;;1.80;99.90;;;;;;4985265;28;20229;-58
2022/12/06 07:12:18;;;;;;;26.40;11.60;;;1.70;99.90;;;;;;4971676;28;20188;-58
2022/12/06 07:14:46;;;;;;;27.17;11.57;;;1.70;99.90;;;;;;4978842;28;20195;-58
2022/12/06 07:17:14;;;;;;;26.30;12.03;;;1.70;99.90;;;;;;4985221;28;20222;-58
2022/12/06 07:19:43;;;;;;;30.13;12.23;;;1.60;99.90;;;;;;4982353;28;20215;-58
2022/12/06 07:22:11;;;;;;;35.27;13.17;;;1.60;99.90;;;;;;4976878;28;20199;-58
2022/12/06 07:24:41;;;;;;;26.87;12.27;;;1.60;99.90;;;;;;4984704;28;20194;-56
2022/12/06 07:27:16;;;;;;;20.70;10.63;;;1.60;99.90;;;;;;4975814;28;20206;-58
2022/12/06 07:29:44;;;;;;;16.67;9.70;;;1.50;99.90;;;;;;4975913;28;20548;-58
2022/12/06 07:32:12;;;;;;;19.47;9.00;;;1.50;99.90;;;;;;4972025;28;20241;-58
2022/12/06 07:34:41;;;;;;;19.83;10.23;;;1.40;99.90;;;;;;5029333;28;20628;-58
2022/12/06 07:37:09;;;;;;;21.40;10.50;;;1.40;99.90;;;;;;5004427;28;20194;-58
2022/12/06 07:39:37;;;;;;;20.00;10.60;;;1.40;99.90;;;;;;5013346;28;20224;-58
2022/12/06 07:45:04;;;;;;;18.77;10.23;;;1.30;99.90;;;;;;4981374;28;20244;-57
2022/12/06 07:47:33;;;;;;;19.87;11.27;;;1.40;99.90;;;;;;4975515;28;20202;-58
2022/12/06 07:50:02;;;;;;;24.37;11.47;;;1.30;99.90;;;;;;4981847;28;20203;-57
2022/12/06 07:52:32;;;;;;;23.80;12.10;;;1.40;99.90;;;;;;4982152;28;20661;-58
2022/12/06 07:55:01;;;;;;;24.23;11.87;;;1.40;99.90;;;;;;4976953;28;20187;-58
2022/12/06 07:57:31;;;;;;;30.07;13.17;;;1.50;99.90;;;;;;4984579;28;20253;-58
2022/12/06 08:00:00;;;;;;;23.53;11.30;;;1.50;99.90;;;;;;4974646;28;20207;-58
2022/12/06 08:02:29;;;;;;;29.93;13.03;;;1.60;99.90;;;;;;4984469;28;20215;-58
2022/12/06 08:04:57;;;;;;;30.70;12.87;;;1.70;99.90;;;;;;4972456;28;20203;-58
2022/12/06 08:07:26;;;;;;;25.73;11.97;;;1.70;99.90;;;;;;4985173;28;20206;-58
2022/12/06 08:09:54;;;;;;;28.37;13.37;;;1.80;99.90;;;;;;4979613;28;20223;-58
2022/12/06 08:12:23;;;;;;;32.73;14.80;;;1.90;99.90;;;;;;4985940;28;20195;-58
2022/12/06 08:14:52;;;;;;;53.70;17.47;;;2.00;99.90;;;;;;4972570;28;20219;-58
2022/12/06 08:17:26;;;;;;;64.13;23.47;;;2.10;99.90;;;;;;4989457;28;20242;-58
2022/12/06 08:19:55;;;;;;;60.63;23.27;;;2.20;99.90;;;;;;4984490;28;20206;-58
2022/12/06 08:22:23;;;;;;;52.57;23.93;;;2.30;99.90;;;;;;4986190;28;20221;-58
2022/12/06 08:24:51;;;;;;;46.23;22.60;;;2.50;99.90;;;;;;4980708;28;20207;-58
2022/12/06 08:27:20;;;;;;;44.00;20.27;;;2.60;99.90;;;;;;4981740;28;20208;-58
2022/12/06 08:29:48;;;;;;;36.40;17.07;;;2.70;99.90;;;;;;4981033;28;20203;-58
2022/12/06 08:32:18;;;;;;;29.73;15.70;;;2.80;99.90;;;;;;5026196;28;20207;-58
2022/12/06 08:34:46;;;;;;;38.60;14.97;;;2.90;99.90;;;;;;5017886;28;20693;-58
2022/12/06 08:37:14;;;;;;;33.20;14.07;;;3.00;99.90;;;;;;5011883;28;20674;-58
2022/12/06 08:39:43;;;;;;;33.20;13.30;;;3.10;99.90;;;;;;5032947;28;20195;-58
2022/12/06 08:42:11;;;;;;;40.00;14.03;;;3.20;99.90;;;;;;4985673;28;20246;-58
2022/12/06 08:44:40;;;;;;;32.27;13.27;;;3.30;99.90;;;;;;4980192;28;20192;-58
2022/12/06 08:47:10;;;;;;;25.37;11.83;;;3.40;99.90;;;;;;4982678;28;20601;-58
2022/12/06 08:49:39;;;;;;;25.93;12.83;;;3.40;99.90;;;;;;4980502;28;20205;-58
2022/12/06 08:52:08;;;;;;;30.67;12.17;;;3.50;99.90;;;;;;4986087;28;20558;-58
2022/12/06 08:54:36;;;;;;;24.27;11.67;;;3.60;99.90;;;;;;4986431;28;20206;-58
2022/12/06 08:57:05;;;;;;;26.83;12.20;;;3.70;99.90;;;;;;4987359;28;20225;-58
2022/12/06 08:59:33;;;;;;;25.73;12.87;;;3.70;99.90;;;;;;4981290;28;20191;-58
2022/12/06 09:02:01;;;;;;;31.67;13.10;;;3.80;99.90;;;;;;5008619;28;20236;-58
2022/12/06 09:04:30;;;;;;;25.77;12.57;;;3.90;99.90;;;;;;4985786;28;20229;-58
2022/12/06 09:07:02;;;;;;;31.87;12.23;;;3.90;99.90;;;;;;4986003;28;20590;-58
2022/12/06 09:09:37;;;;;;;29.83;13.23;;;4.00;99.90;;;;;;4986431;28;20226;-57
2022/12/06 09:12:05;;;;;;;26.00;12.27;;;4.10;99.90;;;;;;4987987;28;20276;-58
2022/12/06 09:14:34;;;;;;;31.90;13.00;;;4.10;99.90;;;;;;4985014;28;20191;-58
2022/12/06 09:17:02;;;;;;;23.50;11.90;;;4.20;99.90;;;;;;5001203;28;20222;-59
2022/12/06 09:19:31;;;;;;;22.97;12.10;;;4.30;99.90;;;;;;4983730;28;20194;-58
2022/12/06 09:21:59;;;;;;;24.23;12.20;;;4.30;99.90;;;;;;4989751;28;20201;-58
2022/12/06 09:24:28;;;;;;;29.57;12.43;;;4.40;99.90;;;;;;4990795;28;20201;-58
2022/12/06 09:26:57;;;;;;;34.00;14.33;;;4.50;99.90;;;;;;4985984;28;20676;-58
2022/12/06 09:29:25;;;;;;;33.53;13.77;;;4.60;99.90;;;;;;4979942;28;20290;-59
2022/12/06 09:31:54;;;;;;;26.70;13.33;;;4.70;99.90;;;;;;4976940;28;20218;-59
2022/12/06 09:34:23;;;;;;;29.30;13.73;;;4.80;99.90;;;;;;4988262;28;20199;-59
2022/12/06 09:36:53;;;;;;;31.90;14.63;;;4.90;99.90;;;;;;4987471;28;20706;-58
2022/12/06 09:39:26;;;;;;;25.07;13.67;;;4.90;99.90;;;;;;4985591;28;20209;-59
2022/12/06 09:42:33;;;;;;;24.73;13.57;;;4.90;99.90;;;;;;4986224;28;20203;-59
2022/12/06 09:45:25;;;;;;;25.80;12.50;;;4.90;99.90;;;;;;4978660;28;20207;-59
2022/12/06 09:48:19;;;;;;;26.93;11.50;;;4.80;99.90;;;;;;4975421;28;20204;-58
2022/12/06 09:50:58;;;;;;;19.07;10.60;;;4.80;99.90;;;;;;5023938;28;20592;-58
2022/12/06 09:53:39;;;;;;;18.47;11.40;;;5.00;99.90;;;;;;4982408;28;20645;-59
2022/12/06 09:56:16;;;;;;;20.50;10.37;;;5.30;99.90;;;;;;4981201;28;20661;-58
2022/12/06 09:58:57;;;;;;;20.83;11.23;;;5.70;99.90;;;;;;4986711;28;20746;-59
2022/12/06 10:01:36;;;;;;;21.17;11.43;;;6.10;99.90;;;;;;5014480;28;20831;-59
2022/12/06 10:04:25;;;;;;;21.07;11.70;;;6.20;99.90;;;;;;4993826;28;20219;-59
2022/12/06 10:07:03;;;;;;;27.00;12.33;;;6.30;99.90;;;;;;4993987;28;20187;-59
2022/12/06 10:09:42;;;;;;;17.13;10.93;;;6.40;99.90;;;;;;4999497;28;20214;-59
2022/12/06 10:12:21;;;;;;;20.80;11.47;;;6.60;99.90;;;;;;5004584;28;20206;-59
2022/12/06 10:15:03;;;;;;;23.20;10.23;;;6.80;99.90;;;;;;4981459;28;20196;-59
2022/12/06 10:17:45;;;;;;;15.93;9.13;;;6.90;99.90;;;;;;4978150;28;20318;-59
2022/12/06 10:20:29;;;;;;;23.67;11.33;;;7.00;99.90;;;;;;4984963;28;20196;-59
2022/12/06 10:23:11;;;;;;;25.80;10.30;;;7.10;99.90;;;;;;4975567;28;20227;-58
2022/12/06 10:25:42;;;;;;;19.20;9.67;;;7.30;99.90;;;;;;4988526;28;20661;-58
2022/12/06 10:28:13;;;;;;;13.47;7.47;;;7.30;99.90;;;;;;4989921;28;20240;-59
2022/12/06 10:30:51;;;;;;;13.27;6.83;;;7.50;99.90;;;;;;4989719;28;20213;-58
2022/12/06 10:33:33;;;;;;;9.93;6.70;;;7.60;99.90;;;;;;4991129;28;20206;-58
2022/12/06 10:36:05;;;;;;;11.03;6.97;;;7.80;99.90;;;;;;4986465;28;20684;-58
2022/12/06 10:38:39;;;;;;;13.57;7.30;;;7.90;99.90;;;;;;4987407;28;20191;-58
2022/12/06 10:41:15;;;;;;;10.87;6.60;;;8.10;99.90;;;;;;4984031;28;20290;-59
2022/12/06 10:43:52;;;;;;;9.60;6.57;;;8.20;99.90;;;;;;5005988;28;20219;-59
2022/12/06 10:49:24;;;;;;;7.50;5.50;;;8.50;99.90;;;;;;5002326;28;20676;-59
2022/12/06 10:51:58;;;;;;;7.13;5.13;;;8.60;99.90;;;;;;4991651;28;20198;-59
2022/12/06 10:54:33;;;;;;;6.03;4.50;;;8.70;99.90;;;;;;4991032;28;20197;-58
2022/12/06 10:57:06;;;;;;;5.57;4.37;;;8.70;99.90;;;;;;4983499;28;20213;-59
2022/12/06 10:59:39;;;;;;;6.83;4.27;;;8.80;99.90;;;;;;4986856;28;20542;-58
2022/12/06 11:02:21;;;;;;;6.40;4.40;;;8.90;99.90;;;;;;4992779;28;20565;-59
2022/12/06 11:04:55;;;;;;;5.50;4.33;;;9.00;99.90;;;;;;4975812;28;20231;-58
2022/12/06 11:07:28;;;;;;;6.40;4.60;;;9.10;99.90;;;;;;4986545;28;20282;-58
2022/12/06 11:09:57;;;;;;;7.17;5.10;;;9.20;99.90;;;;;;4975050;28;20232;-58
2022/12/06 11:12:30;;;;;;;8.63;5.43;;;9.20;99.90;;;;;;4984160;28;20227;-58
2022/12/06 11:15:05;;;;;;;9.67;5.07;;;9.20;99.90;;;;;;4987951;28;20236;-59
2022/12/06 11:17:39;;;;;;;7.87;4.93;;;9.30;99.90;;;;;;4985717;28;20230;-58
2022/12/06 11:20:21;;;;;;;6.13;4.47;;;9.30;99.90;;;;;;5013762;28;20595;-58
2022/12/06 11:22:58;;;;;;;6.73;4.43;;;9.40;99.90;;;;;;4979745;28;20285;-58
2022/12/06 11:25:32;;;;;;;7.13;3.97;;;9.40;99.90;;;;;;4978114;28;20190;-59
2022/12/06 11:28:11;;;;;;;5.57;4.67;;;9.50;99.90;;;;;;4984885;28;20187;-58
2022/12/06 11:30:39;;;;;;;4.97;3.43;;;9.60;99.90;;;;;;4979120;28;20222;-58
2022/12/06 11:33:09;;;;;;;5.87;3.50;;;9.60;99.90;;;;;;4997017;28;20208;-59
2022/12/06 11:35:40;;;;;;;5.43;3.47;;;9.60;99.90;;;;;;4983500;28;20204;-58
2022/12/06 11:38:09;;;;;;;9.90;3.97;;;9.70;99.90;;;;;;4984681;28;20202;-58
2022/12/06 11:40:41;;;;;;;7.10;3.40;;;9.70;99.90;;;;;;4985036;28;20570;-58
2022/12/06 11:43:16;;;;;;;5.27;3.80;;;9.80;99.90;;;;;;4975363;28;20199;-57
2022/12/06 11:45:45;;;;;;;6.77;4.27;;;9.70;99.90;;;;;;4984232;28;20198;-59
2022/12/06 11:48:16;;;;;;;4.43;3.90;;;9.70;99.90;;;;;;4986499;28;20661;-58
2022/12/06 11:50:48;;;;;;;8.47;4.80;;;9.70;99.90;;;;;;4998147;28;20210;-59
2022/12/06 11:53:25;;;;;;;8.13;5.03;;;9.60;99.90;;;;;;4983608;28;20195;-58
2022/12/06 11:55:57;;;;;;;11.57;5.43;;;9.60;99.90;;;;;;4984993;28;20306;-59
2022/12/06 11:58:30;;;;;;;6.97;4.17;;;9.60;99.90;;;;;;4975148;28;20196;-58
2022/12/06 12:01:03;;;;;;;6.00;3.87;;;9.50;99.90;;;;;;4974386;28;20199;-59
2022/12/06 12:03:33;;;;;;;5.93;3.60;;;9.50;99.90;;;;;;5010581;28;20204;-58
2022/12/06 12:06:18;;;;;;;4.33;3.50;;;9.40;99.90;;;;;;4984024;28;20273;-58
2022/12/06 12:09:16;;;;;;;5.30;3.10;;;9.40;99.90;;;;;;4972372;28;20210;-58
2022/12/06 12:11:54;;;;;;;5.73;3.70;;;9.40;99.90;;;;;;5002187;28;20289;-58
2022/12/06 12:14:36;;;;;;;4.00;3.60;;;9.40;99.90;;;;;;5010467;28;20190;-58
2022/12/06 12:17:12;;;;;;;6.00;3.70;;;9.40;99.90;;;;;;4974283;28;20372;-59
2022/12/06 12:19:46;;;;;;;3.67;3.37;;;9.40;99.90;;;;;;4969917;28;20663;-58
2022/12/06 12:22:24;;;;;;;3.53;3.00;;;9.30;99.90;;;;;;4972180;28;20192;-58
2022/12/06 12:24:56;;;;;;;3.23;3.03;;;9.20;99.90;;;;;;4971881;28;20344;-56
2022/12/06 12:27:47;;;;;;;4.03;3.20;;;9.30;99.90;;;;;;4971898;28;20203;-56
2022/12/06 12:30:23;;;;;;;4.20;3.37;;;9.30;99.90;;;;;;4974424;28;20225;-59
2022/12/06 12:33:05;;;;;;;11.23;3.13;;;9.40;99.90;;;;;;4996284;28;20281;-59
2022/12/06 12:35:36;;;;;;;3.77;2.40;;;9.50;99.90;;;;;;4977023;28;20202;-58
2022/12/06 12:38:16;;;;;;;4.77;2.77;;;9.50;99.90;;;;;;4997816;28;20208;-59
2022/12/06 12:40:48;;;;;;;3.13;2.10;;;9.60;99.90;;;;;;4984310;28;20273;-59
2022/12/06 12:43:20;;;;;;;2.30;2.10;;;9.60;99.90;;;;;;4989796;28;20196;-59
2022/12/06 12:46:20;;;;;;;3.80;2.20;;;9.70;99.90;;;;;;4972813;28;20582;-58
2022/12/06 12:48:51;;;;;;;3.77;2.00;;;9.80;99.90;;;;;;5044093;28;20327;-59
2022/12/06 12:51:32;;;;;;;2.77;2.03;;;10.00;99.90;;;;;;4997549;28;20219;-59
2022/12/06 12:54:06;;;;;;;3.57;2.17;;;10.00;99.90;;;;;;4976126;28;20199;-59
2022/12/06 12:56:37;;;;;;;2.87;1.90;;;10.10;99.90;;;;;;4986400;28;20198;-59
2022/12/06 12:59:13;;;;;;;3.57;1.90;;;10.00;99.90;;;;;;4981606;28;20255;-59
2022/12/06 13:01:47;;;;;;;3.07;2.10;;;10.00;99.90;;;;;;4998334;28;20285;-59
2022/12/06 13:04:24;;;;;;;3.33;1.97;;;10.00;99.90;;;;;;4977147;28;20223;-58
2022/12/06 13:06:55;;;;;;;2.73;2.10;;;10.00;99.90;;;;;;4988994;28;20187;-59
2022/12/06 13:09:29;;;;;;;3.60;2.30;;;9.90;99.90;;;;;;4975371;28;20273;-59
2022/12/06 13:12:03;;;;;;;2.00;1.90;;;9.90;99.90;;;;;;4980993;28;20252;-59
2022/12/06 13:14:33;;;;;;;6.60;2.30;;;9.70;99.90;;;;;;5016135;28;20199;-59
2022/12/06 13:17:07;;;;;;;3.33;1.80;;;9.60;99.90;;;;;;4985294;28;20235;-58
2022/12/06 13:19:41;;;;;;;2.50;1.97;;;9.60;99.90;;;;;;4987218;28;20247;-59
2022/12/06 13:22:16;;;;;;;2.13;1.93;;;9.50;99.90;;;;;;4979765;28;20202;-59
2022/12/06 13:24:46;;;;;;;3.83;2.13;;;9.40;99.90;;;;;;4983804;28;20738;-59
2022/12/06 13:27:19;;;;;;;7.13;2.30;;;9.30;99.90;;;;;;4984124;28;20564;-59
2022/12/06 13:29:53;;;;;;;2.30;1.90;;;9.30;99.90;;;;;;4974188;28;20245;-59
2022/12/06 13:32:28;;;;;;;5.10;2.67;;;9.30;99.90;;;;;;4983478;28;20533;-59